Bakersfield, CA

12:34 PM PDT on August 28, 2016 (GMT -0700)
Above Rio Bravo Country Club | | Change Station

Elev 977 ft 35.40 °N, 118.83 °W | Updated 0 second ago

Clear
Clear
84.9 °F
Feels Like 84.9 °F
N
4.5
Wind Variable Wind from SW
Gusts 7.3 mph

Today
High -- | Low -- °F
--% Chance of Precip.
Yesterday
High -- | Low -- °F
Precip. -- in
Pressure 30.01 in
Visibility 10.0 miles
Clouds Clear
Dew Point 28.6 °F
Humidity 13%
Rainfall 0.00 in
Snow Depth Not available.
6:26 AM 7:28 PM
Waning Crescent, 14% visible
METAR KBFL 281854Z 24005KT 10SM CLR 28/12 A3003 RMK AO2 SLP163 T02830122
Pressure 30.01 in
Visibility 10.0 miles
Clouds Clear
Dew Point 28.6 °F
Humidity 13%
Rainfall 0.00 in
Snow Depth Not available.
6:26 AM 7:28 PM
Waning Crescent, 14% visible
METAR KBFL 281854Z 24005KT 10SM CLR 28/12 A3003 RMK AO2 SLP163 T02830122

10-Day Weather Forecast

Almanac

Astronomy

Aug. 28, 2016 Rise Set
Actual Time
Civil Twilight
Nautical Twilight
Astronomical Twilight
Moon
Length of Visible Light
Length of Day
Tomorrow will be .
, % of the Moon is Illuminated

Today's Extremes

State Highs State Lows

Community

WunderPhotos

Upload Photos

1,935,658 photos uploaded!

WunderBlog® & News

Nearby

Air Quality

  Air Quality AQ Index Pollutant
Not available.

Snow Depth

Station Depth Elevation

Earthquake Activity

City Distance Mag. Time & Date
Minimum magnitude displayed is 2.5.

Coastal Water Temperatures

Place Temperature

Stations

Nearby Weather Stations

Station Location Temp. Windchill Dew Point Humidity Wind Precip. Elev Updated Type
                   

Watches & Warnings

There are currently no watches in effect.